Hua-lien, Taiwan
Current Conditions -  °F | °C
As of 3:00 PM on Saturday 29 Nov 2014 (Local Time) from RCMQ Reporting Station
Broken Clouds Broken Clouds  
Wind Chill: 77°   Ceiling: 4000
Heat Index: 79°   Visibility: 4mi
Dew Point: 70°   Wind: 9mph
Humidity: 78%   Direction: 340°NNW
Pressure: 29.88"   Gusts: NA
Location:  24.02°N, 121.62°E
Report Text: RCMQ 290700Z 34008KT 7000 FEW010 BKN040 BKN100 25/21 Q1012 NOSIG RMK A2990
Loading
Personal Weather Stations






























Interactive Weather Map New forecast layout! Learn more

10-Day Weather Forecast

Advertisements
Track Severe Weather on mobile